sensor_id;sensor_type;location;lat;lon;timestamp;pressure;altitude;pressure_sealevel;temperature;humidity
63088;BME280;49173;43.164;27.786;2022-12-29T00:02:14;101785.63;;;2.73;77.40
63088;BME280;49173;43.164;27.786;2022-12-29T00:04:40;101777.69;;;2.68;77.42
63088;BME280;49173;43.164;27.786;2022-12-29T00:07:06;101780.34;;;2.70;77.71
63088;BME280;49173;43.164;27.786;2022-12-29T00:09:33;101782.97;;;2.70;77.78
63088;BME280;49173;43.164;27.786;2022-12-29T00:12:00;101775.91;;;2.69;77.66
63088;BME280;49173;43.164;27.786;2022-12-29T00:14:27;101770.59;;;2.67;77.85
63088;BME280;49173;43.164;27.786;2022-12-29T00:17:12;101780.34;;;2.68;77.77
63088;BME280;49173;43.164;27.786;2022-12-29T00:19:37;101776.81;;;2.68;77.75
63088;BME280;49173;43.164;27.786;2022-12-29T00:22:21;101774.16;;;2.69;77.93
63088;BME280;49173;43.164;27.786;2022-12-29T00:25:09;101782.09;;;2.71;77.92
63088;BME280;49173;43.164;27.786;2022-12-29T00:27:53;101777.66;;;2.73;78.47
63088;BME280;49173;43.164;27.786;2022-12-29T00:30:38;101774.16;;;2.68;78.66
63088;BME280;49173;43.164;27.786;2022-12-29T00:33:27;101769.72;;;2.71;78.98
63088;BME280;49173;43.164;27.786;2022-12-29T00:38:47;101771.50;;;2.72;78.63
63088;BME280;49173;43.164;27.786;2022-12-29T00:41:33;101771.50;;;2.69;78.65
63088;BME280;49173;43.164;27.786;2022-12-29T00:44:17;101765.31;;;2.69;78.65
63088;BME280;49173;43.164;27.786;2022-12-29T00:46:43;101773.28;;;2.69;78.16
63088;BME280;49173;43.164;27.786;2022-12-29T00:49:11;101764.44;;;2.68;78.18
63088;BME280;49173;43.164;27.786;2022-12-29T00:52:01;101767.94;;;2.67;77.90
63088;BME280;49173;43.164;27.786;2022-12-29T00:54:32;101772.38;;;2.62;77.96
63088;BME280;49173;43.164;27.786;2022-12-29T00:56:58;101775.03;;;2.61;78.28
63088;BME280;49173;43.164;27.786;2022-12-29T00:59:24;101764.44;;;2.61;77.94
63088;BME280;49173;43.164;27.786;2022-12-29T01:01:50;101770.63;;;2.63;77.89
63088;BME280;49173;43.164;27.786;2022-12-29T01:04:17;101775.03;;;2.65;78.08
63088;BME280;49173;43.164;27.786;2022-12-29T01:06:43;101758.22;;;2.66;77.85
63088;BME280;49173;43.164;27.786;2022-12-29T01:09:10;101761.78;;;2.64;78.00
63088;BME280;49173;43.164;27.786;2022-12-29T01:11:55;101759.16;;;2.61;78.37
63088;BME280;49173;43.164;27.786;2022-12-29T01:14:22;101749.41;;;2.60;78.69
63088;BME280;49173;43.164;27.786;2022-12-29T01:16:48;101744.09;;;2.57;78.67
63088;BME280;49173;43.164;27.786;2022-12-29T01:19:15;101737.91;;;2.53;79.25
63088;BME280;49173;43.164;27.786;2022-12-29T01:21:41;101727.31;;;2.50;79.33
63088;BME280;49173;43.164;27.786;2022-12-29T01:24:06;101731.75;;;2.50;79.76
63088;BME280;49173;43.164;27.786;2022-12-29T01:26:32;101720.25;;;2.51;79.85
63088;BME280;49173;43.164;27.786;2022-12-29T01:28:58;101713.19;;;2.54;79.83
63088;BME280;49173;43.164;27.786;2022-12-29T01:31:23;101714.97;;;2.55;79.53
63088;BME280;49173;43.164;27.786;2022-12-29T01:33:49;101708.78;;;2.56;79.46
63088;BME280;49173;43.164;27.786;2022-12-29T01:36:16;101708.78;;;2.56;79.69
63088;BME280;49173;43.164;27.786;2022-12-29T01:38:43;101710.53;;;2.56;79.67
63088;BME280;49173;43.164;27.786;2022-12-29T01:41:11;101697.28;;;2.53;80.03
63088;BME280;49173;43.164;27.786;2022-12-29T01:48:41;101683.16;;;2.47;79.82
63088;BME280;49173;43.164;27.786;2022-12-29T01:51:08;101686.69;;;2.51;79.88
63088;BME280;49173;43.164;27.786;2022-12-29T01:53:35;101689.31;;;2.53;79.73
63088;BME280;49173;43.164;27.786;2022-12-29T01:56:05;101683.16;;;2.55;79.63
63088;BME280;49173;43.164;27.786;2022-12-29T01:58:35;101680.50;;;2.51;79.49
63088;BME280;49173;43.164;27.786;2022-12-29T02:01:03;101670.78;;;2.50;79.60
63088;BME280;49173;43.164;27.786;2022-12-29T02:03:30;101657.53;;;2.53;79.07
63088;BME280;49173;43.164;27.786;2022-12-29T02:06:23;101658.41;;;2.58;79.56
63088;BME280;49173;43.164;27.786;2022-12-29T02:08:53;101660.19;;;2.56;80.01
63088;BME280;49173;43.164;27.786;2022-12-29T02:11:21;101661.94;;;2.54;80.42
63088;BME280;49173;43.164;27.786;2022-12-29T02:13:48;101667.25;;;2.55;80.65
63088;BME280;49173;43.164;27.786;2022-12-29T02:37:40;101645.19;;;2.39;80.64
63088;BME280;49173;43.164;27.786;2022-12-29T02:40:19;101646.94;;;2.37;80.24
63088;BME280;49173;43.164;27.786;2022-12-29T02:42:53;101647.84;;;2.36;81.05
63088;BME280;49173;43.164;27.786;2022-12-29T02:45:38;101634.59;;;2.30;81.56
63088;BME280;49173;43.164;27.786;2022-12-29T02:48:24;101638.13;;;2.29;81.54
63088;BME280;49173;43.164;27.786;2022-12-29T02:51:03;101634.63;;;2.33;81.27
63088;BME280;49173;43.164;27.786;2022-12-29T02:53:32;101642.53;;;2.32;81.30
63088;BME280;49173;43.164;27.786;2022-12-29T02:56:17;101631.06;;;2.34;80.72
63088;BME280;49173;43.164;27.786;2022-12-29T02:58:43;101639.88;;;2.32;80.80
63088;BME280;49173;43.164;27.786;2022-12-29T03:11:52;101628.44;;;2.16;81.08
63088;BME280;49173;43.164;27.786;2022-12-29T03:14:58;101624.00;;;2.18;81.56
63088;BME280;49173;43.164;27.786;2022-12-29T03:18:21;101635.50;;;2.14;81.24
63088;BME280;49173;43.164;27.786;2022-12-29T03:21:01;101635.47;;;2.11;81.04
63088;BME280;49173;43.164;27.786;2022-12-29T03:23:29;101646.97;;;2.08;81.34
63088;BME280;49173;43.164;27.786;2022-12-29T03:25:58;101646.97;;;2.07;81.56
63088;BME280;49173;43.164;27.786;2022-12-29T03:28:37;101660.19;;;2.10;81.61
63088;BME280;49173;43.164;27.786;2022-12-29T03:31:06;101658.44;;;2.10;81.92
63088;BME280;49173;43.164;27.786;2022-12-29T03:33:34;101654.91;;;2.11;81.87
63088;BME280;49173;43.164;27.786;2022-12-29T03:36:04;101663.75;;;2.15;81.09
63088;BME280;49173;43.164;27.786;2022-12-29T03:38:51;101661.09;;;2.18;80.08
63088;BME280;49173;43.164;27.786;2022-12-29T03:41:24;101654.03;;;2.12;79.99
63088;BME280;49173;43.164;27.786;2022-12-29T03:43:51;101669.94;;;2.05;80.70
63088;BME280;49173;43.164;27.786;2022-12-29T03:46:17;101662.84;;;1.99;81.49
63088;BME280;49173;43.164;27.786;2022-12-29T03:48:43;101668.16;;;2.01;82.13
63088;BME280;49173;43.164;27.786;2022-12-29T03:51:08;101663.75;;;1.98;82.31
63088;BME280;49173;43.164;27.786;2022-12-29T03:53:34;101667.25;;;1.92;82.36
63088;BME280;49173;43.164;27.786;2022-12-29T03:56:00;101668.13;;;1.85;82.46
63088;BME280;49173;43.164;27.786;2022-12-29T03:58:25;101660.16;;;1.81;83.08
63088;BME280;49173;43.164;27.786;2022-12-29T04:00:51;101660.19;;;1.85;83.89
63088;BME280;49173;43.164;27.786;2022-12-29T04:03:17;101666.38;;;1.90;83.89
63088;BME280;49173;43.164;27.786;2022-12-29T04:05:42;101669.91;;;1.96;83.91
63088;BME280;49173;43.164;27.786;2022-12-29T04:08:10;101681.38;;;1.99;83.83
63088;BME280;49173;43.164;27.786;2022-12-29T04:10:36;101676.09;;;1.98;83.43
63088;BME280;49173;43.164;27.786;2022-12-29T04:13:02;101678.75;;;1.98;83.39
63088;BME280;49173;43.164;27.786;2022-12-29T04:15:27;101670.78;;;1.99;83.05
63088;BME280;49173;43.164;27.786;2022-12-29T04:17:53;101670.78;;;1.99;83.47
63088;BME280;49173;43.164;27.786;2022-12-29T04:20:19;101673.44;;;1.98;83.47
63088;BME280;49173;43.164;27.786;2022-12-29T04:23:04;101671.69;;;1.98;83.84
63088;BME280;49173;43.164;27.786;2022-12-29T04:25:31;101679.63;;;2.01;83.94
63088;BME280;49173;43.164;27.786;2022-12-29T04:27:57;101676.97;;;1.98;84.18
63088;BME280;49173;43.164;27.786;2022-12-29T04:30:23;101674.31;;;1.97;84.26
63088;BME280;49173;43.164;27.786;2022-12-29T04:32:49;101676.97;;;2.06;84.35
63088;BME280;49173;43.164;27.786;2022-12-29T04:35:15;101672.56;;;2.12;83.28
63088;BME280;49173;43.164;27.786;2022-12-29T04:37:40;101681.41;;;2.14;82.65
63088;BME280;49173;43.164;27.786;2022-12-29T04:40:07;101677.00;;;2.13;83.05
63088;BME280;49173;43.164;27.786;2022-12-29T04:42:33;101677.88;;;2.12;83.02
63088;BME280;49173;43.164;27.786;2022-12-29T04:44:58;101678.72;;;2.10;83.68
63088;BME280;49173;43.164;27.786;2022-12-29T04:47:24;101684.94;;;2.13;83.86
63088;BME280;49173;43.164;27.786;2022-12-29T04:49:50;101681.41;;;2.13;83.18
63088;BME280;49173;43.164;27.786;2022-12-29T04:52:15;101676.97;;;2.10;83.39
63088;BME280;49173;43.164;27.786;2022-12-29T04:54:41;101682.28;;;2.15;83.20
63088;BME280;49173;43.164;27.786;2022-12-29T04:57:07;101680.50;;;2.11;83.17
63088;BME280;49173;43.164;27.786;2022-12-29T04:59:33;101681.41;;;2.14;83.80
63088;BME280;49173;43.164;27.786;2022-12-29T05:01:58;101678.75;;;2.13;83.92
63088;BME280;49173;43.164;27.786;2022-12-29T05:04:24;101667.25;;;2.17;84.66
63088;BME280;49173;43.164;27.786;2022-12-29T05:06:50;101662.00;;;2.20;83.93
63088;BME280;49173;43.164;27.786;2022-12-29T05:09:15;101663.75;;;2.23;83.90
63088;BME280;49173;43.164;27.786;2022-12-29T05:11:41;101671.69;;;2.23;84.14
63088;BME280;49173;43.164;27.786;2022-12-29T05:14:07;101674.31;;;2.18;84.87
63088;BME280;49173;43.164;27.786;2022-12-29T05:16:32;101679.63;;;2.15;85.52
63088;BME280;49173;43.164;27.786;2022-12-29T05:18:58;101672.56;;;2.15;85.65
63088;BME280;49173;43.164;27.786;2022-12-29T05:21:24;101669.03;;;2.18;85.89
63088;BME280;49173;43.164;27.786;2022-12-29T05:23:50;101669.94;;;2.20;85.74
63088;BME280;49173;43.164;27.786;2022-12-29T05:26:15;101667.28;;;2.18;84.95
63088;BME280;49173;43.164;27.786;2022-12-29T05:28:41;101674.34;;;2.15;85.12
63088;BME280;49173;43.164;27.786;2022-12-29T05:31:07;101667.25;;;2.11;86.04
63088;BME280;49173;43.164;27.786;2022-12-29T05:33:33;101662.88;;;2.13;86.74
63088;BME280;49173;43.164;27.786;2022-12-29T05:36:08;101660.22;;;2.16;86.49
63088;BME280;49173;43.164;27.786;2022-12-29T05:38:34;101661.09;;;2.15;86.78
63088;BME280;49173;43.164;27.786;2022-12-29T05:41:00;101664.63;;;2.12;86.70
63088;BME280;49173;43.164;27.786;2022-12-29T05:43:26;101676.09;;;2.11;86.28
63088;BME280;49173;43.164;27.786;2022-12-29T05:45:53;101684.91;;;2.09;86.12
63088;BME280;49173;43.164;27.786;2022-12-29T05:48:19;101679.63;;;2.10;86.40
63088;BME280;49173;43.164;27.786;2022-12-29T05:50:49;101678.75;;;2.13;86.79
63088;BME280;49173;43.164;27.786;2022-12-29T05:53:15;101684.06;;;2.13;86.56
63088;BME280;49173;43.164;27.786;2022-12-29T05:55:40;101685.78;;;2.09;86.27
63088;BME280;49173;43.164;27.786;2022-12-29T05:58:06;101676.09;;;2.07;85.51
63088;BME280;49173;43.164;27.786;2022-12-29T06:00:32;101683.16;;;2.02;85.22
63088;BME280;49173;43.164;27.786;2022-12-29T06:02:58;101684.03;;;1.98;84.52
63088;BME280;49173;43.164;27.786;2022-12-29T06:05:24;101683.16;;;1.91;84.13
63088;BME280;49173;43.164;27.786;2022-12-29T06:07:49;101684.91;;;1.86;84.28
63088;BME280;49173;43.164;27.786;2022-12-29T06:10:15;101681.38;;;1.84;84.33
63088;BME280;49173;43.164;27.786;2022-12-29T06:12:41;101691.94;;;1.82;84.20
63088;BME280;49173;43.164;27.786;2022-12-29T06:15:07;101689.31;;;1.85;84.52
63088;BME280;49173;43.164;27.786;2022-12-29T06:17:33;101683.13;;;1.86;84.66
63088;BME280;49173;43.164;27.786;2022-12-29T06:19:59;101683.13;;;1.83;84.81
63088;BME280;49173;43.164;27.786;2022-12-29T06:22:24;101688.44;;;1.85;84.75
63088;BME280;49173;43.164;27.786;2022-12-29T06:24:50;101681.38;;;1.84;84.97
63088;BME280;49173;43.164;27.786;2022-12-29T06:27:16;101687.53;;;1.86;84.65
63088;BME280;49173;43.164;27.786;2022-12-29T06:29:41;101683.13;;;1.86;84.91
63088;BME280;49173;43.164;27.786;2022-12-29T06:32:08;101684.00;;;1.88;85.03
63088;BME280;49173;43.164;27.786;2022-12-29T06:34:34;101683.13;;;1.83;85.29
63088;BME280;49173;43.164;27.786;2022-12-29T06:37:00;101684.91;;;1.92;85.20
63088;BME280;49173;43.164;27.786;2022-12-29T06:39:27;101687.53;;;1.97;85.48
63088;BME280;49173;43.164;27.786;2022-12-29T06:41:54;101686.69;;;2.01;85.59
63088;BME280;49173;43.164;27.786;2022-12-29T06:44:24;101691.13;;;2.05;86.43
63088;BME280;49173;43.164;27.786;2022-12-29T06:46:50;101684.03;;;2.10;87.19
63088;BME280;49173;43.164;27.786;2022-12-29T06:49:16;101681.38;;;2.16;87.98
63088;BME280;49173;43.164;27.786;2022-12-29T06:51:42;101676.97;;;2.23;88.17
63088;BME280;49173;43.164;27.786;2022-12-29T06:54:08;101676.09;;;2.28;88.42
63088;BME280;49173;43.164;27.786;2022-12-29T06:56:34;101671.69;;;2.33;88.83
63088;BME280;49173;43.164;27.786;2022-12-29T06:58:59;101670.81;;;2.40;89.63
63088;BME280;49173;43.164;27.786;2022-12-29T07:01:28;101674.34;;;2.48;90.54
63088;BME280;49173;43.164;27.786;2022-12-29T07:03:54;101685.81;;;2.57;91.31
63088;BME280;49173;43.164;27.786;2022-12-29T07:06:20;101685.81;;;2.63;91.29
63088;BME280;49173;43.164;27.786;2022-12-29T07:08:47;101679.63;;;2.62;90.67
63088;BME280;49173;43.164;27.786;2022-12-29T07:11:13;101677.84;;;2.64;89.61
63088;BME280;49173;43.164;27.786;2022-12-29T07:13:38;101682.25;;;2.64;89.33
63088;BME280;49173;43.164;27.786;2022-12-29T07:16:08;101683.16;;;2.64;88.96
63088;BME280;49173;43.164;27.786;2022-12-29T07:18:34;101688.44;;;2.67;88.64
63088;BME280;49173;43.164;27.786;2022-12-29T07:21:01;101685.81;;;2.69;88.56
63088;BME280;49173;43.164;27.786;2022-12-29T07:23:27;101691.09;;;2.72;89.12
63088;BME280;49173;43.164;27.786;2022-12-29T07:26:07;101691.97;;;2.79;89.62
63088;BME280;49173;43.164;27.786;2022-12-29T07:28:34;101685.75;;;2.81;89.59
63088;BME280;49173;43.164;27.786;2022-12-29T07:31:00;101691.94;;;2.88;89.95
63088;BME280;49173;43.164;27.786;2022-12-29T07:33:29;101691.91;;;2.94;90.91
63088;BME280;49173;43.164;27.786;2022-12-29T07:35:55;101689.25;;;3.00;90.69
63088;BME280;49173;43.164;27.786;2022-12-29T07:38:20;101690.13;;;3.02;90.82
63088;BME280;49173;43.164;27.786;2022-12-29T07:40:46;101679.53;;;3.03;90.23
63088;BME280;49173;43.164;27.786;2022-12-29T07:43:12;101691.00;;;3.09;90.29
63088;BME280;49173;43.164;27.786;2022-12-29T07:45:37;101683.94;;;3.11;90.75
63088;BME280;49173;43.164;27.786;2022-12-29T07:48:04;101690.09;;;3.14;90.59
63088;BME280;49173;43.164;27.786;2022-12-29T07:50:34;101691.00;;;3.18;91.09
63088;BME280;49173;43.164;27.786;2022-12-29T07:53:00;101682.13;;;3.22;90.85
63088;BME280;49173;43.164;27.786;2022-12-29T07:55:26;101680.31;;;3.28;90.95
63088;BME280;49173;43.164;27.786;2022-12-29T07:57:55;101680.31;;;3.33;91.01
63088;BME280;49173;43.164;27.786;2022-12-29T08:00:22;101694.41;;;3.38;90.80
63088;BME280;49173;43.164;27.786;2022-12-29T08:02:48;101689.09;;;3.46;91.19
63088;BME280;49173;43.164;27.786;2022-12-29T08:05:14;101685.53;;;3.53;91.88
63088;BME280;49173;43.164;27.786;2022-12-29T08:07:43;101689.94;;;3.54;91.72
63088;BME280;49173;43.164;27.786;2022-12-29T08:10:10;101681.94;;;3.58;92.54
63088;BME280;49173;43.164;27.786;2022-12-29T08:12:37;101683.66;;;3.66;92.13
63088;BME280;49173;43.164;27.786;2022-12-29T08:15:04;101685.41;;;3.74;92.77
63088;BME280;49173;43.164;27.786;2022-12-29T08:17:30;101690.69;;;3.82;93.09
63088;BME280;49173;43.164;27.786;2022-12-29T08:19:56;101689.75;;;3.91;93.15
63088;BME280;49173;43.164;27.786;2022-12-29T08:22:23;101695.03;;;3.95;92.89
63088;BME280;49173;43.164;27.786;2022-12-29T08:24:49;101687.03;;;3.98;92.83
63088;BME280;49173;43.164;27.786;2022-12-29T08:27:15;101686.13;;;4.01;92.46
63088;BME280;49173;43.164;27.786;2022-12-29T08:29:41;101687.00;;;4.04;92.85
63088;BME280;49173;43.164;27.786;2022-12-29T08:32:07;101692.25;;;4.10;93.01
63088;BME280;49173;43.164;27.786;2022-12-29T08:34:33;101678.06;;;4.16;92.75
63088;BME280;49173;43.164;27.786;2022-12-29T08:36:59;101679.69;;;4.29;93.13
63088;BME280;49173;43.164;27.786;2022-12-29T08:39:24;101684.09;;;4.38;93.36
63088;BME280;49173;43.164;27.786;2022-12-29T08:41:50;101679.53;;;4.49;93.01
63088;BME280;49173;43.164;27.786;2022-12-29T08:44:17;101671.47;;;4.60;91.69
63088;BME280;49173;43.164;27.786;2022-12-29T08:46:43;101668.78;;;4.61;91.29
63088;BME280;49173;43.164;27.786;2022-12-29T08:49:08;101665.22;;;4.65;91.61
63088;BME280;49173;43.164;27.786;2022-12-29T08:51:35;101659.81;;;4.75;91.78
63088;BME280;49173;43.164;27.786;2022-12-29T08:54:01;101657.00;;;4.85;91.65
63088;BME280;49173;43.164;27.786;2022-12-29T08:56:27;101661.38;;;4.94;92.09
63088;BME280;49173;43.164;27.786;2022-12-29T08:58:53;101654.19;;;5.02;91.03
63088;BME280;49173;43.164;27.786;2022-12-29T09:01:20;101658.50;;;5.12;91.57
63088;BME280;49173;43.164;27.786;2022-12-29T09:03:46;101656.59;;;5.23;91.50
63088;BME280;49173;43.164;27.786;2022-12-29T09:06:13;101653.84;;;5.31;90.99
63088;BME280;49173;43.164;27.786;2022-12-29T09:08:39;101649.13;;;5.51;90.66
63088;BME280;49173;43.164;27.786;2022-12-29T09:11:22;101648.19;;;5.57;90.04
63088;BME280;49173;43.164;27.786;2022-12-29T09:13:49;101649.88;;;5.61;88.28
63088;BME280;49173;43.164;27.786;2022-12-29T09:16:16;101650.78;;;5.60;88.41
63088;BME280;49173;43.164;27.786;2022-12-29T09:18:44;101646.31;;;5.62;88.24
63088;BME280;49173;43.164;27.786;2022-12-29T09:21:11;101648.97;;;5.62;88.44
63088;BME280;49173;43.164;27.786;2022-12-29T09:23:37;101644.56;;;5.61;87.59
63088;BME280;49173;43.164;27.786;2022-12-29T09:26:03;101648.13;;;5.60;87.95
63088;BME280;49173;43.164;27.786;2022-12-29T09:28:30;101641.88;;;5.64;88.66
63088;BME280;49173;43.164;27.786;2022-12-29T09:30:56;101644.41;;;5.70;88.35
63088;BME280;49173;43.164;27.786;2022-12-29T09:33:25;101642.69;;;5.68;87.66
63088;BME280;49173;43.164;27.786;2022-12-29T09:35:56;101647.97;;;5.69;88.14
63088;BME280;49173;43.164;27.786;2022-12-29T09:38:23;101641.75;;;5.72;87.90
63088;BME280;49173;43.164;27.786;2022-12-29T09:40:53;101640.78;;;5.76;87.51
63088;BME280;49173;43.164;27.786;2022-12-29T09:44:26;101631.03;;;5.75;87.54
63088;BME280;49173;43.164;27.786;2022-12-29T09:46:31;101626.47;;;5.83;87.67
63088;BME280;49173;43.164;27.786;2022-12-29T09:51:55;101622.81;;;5.92;86.76
63088;BME280;49173;43.164;27.786;2022-12-29T09:54:40;101612.97;;;5.97;85.67
63088;BME280;49173;43.164;27.786;2022-12-29T09:57:46;101610.22;;;6.03;86.34
63088;BME280;49173;43.164;27.786;2022-12-29T10:00:16;101604.94;;;6.00;86.64
63088;BME280;49173;43.164;27.786;2022-12-29T10:02:52;101607.56;;;6.01;86.19
63088;BME280;49173;43.164;27.786;2022-12-29T10:11:07;101599.16;;;6.27;85.30
63088;BME280;49173;43.164;27.786;2022-12-29T10:16:55;101572.13;;;6.46;84.04
63088;BME280;49173;43.164;27.786;2022-12-29T10:20:18;101580.09;;;6.49;83.77
63088;BME280;49173;43.164;27.786;2022-12-29T10:22:48;101573.59;;;6.62;83.78
63088;BME280;49173;43.164;27.786;2022-12-29T10:25:22;101566.16;;;6.79;82.82
63088;BME280;49173;43.164;27.786;2022-12-29T10:27:50;101563.16;;;6.95;82.20
63088;BME280;49173;43.164;27.786;2022-12-29T10:30:17;101563.06;;;6.99;81.90
63088;BME280;49173;43.164;27.786;2022-12-29T10:33:01;101559.44;;;7.02;81.96
63088;BME280;49173;43.164;27.786;2022-12-29T10:35:33;101559.53;;;6.99;81.90
63088;BME280;49173;43.164;27.786;2022-12-29T10:45:52;101544.72;;;7.24;81.32
63088;BME280;49173;43.164;27.786;2022-12-29T10:48:22;101547.25;;;7.30;80.18
63088;BME280;49173;43.164;27.786;2022-12-29T10:50:50;101535.66;;;7.31;80.05
63088;BME280;49173;43.164;27.786;2022-12-29T10:53:23;101538.19;;;7.37;79.87
63088;BME280;49173;43.164;27.786;2022-12-29T10:55:51;101539.06;;;7.38;79.96
63088;BME280;49173;43.164;27.786;2022-12-29T10:58:17;101531.00;;;7.39;79.28
63088;BME280;49173;43.164;27.786;2022-12-29T11:00:49;101535.38;;;7.43;79.33
63088;BME280;49173;43.164;27.786;2022-12-29T11:06:07;101534.19;;;7.57;78.98
63088;BME280;49173;43.164;27.786;2022-12-29T11:08:37;101535.78;;;7.64;78.86
63088;BME280;49173;43.164;27.786;2022-12-29T11:11:06;101524.97;;;7.70;79.06
63088;BME280;49173;43.164;27.786;2022-12-29T11:13:57;101527.69;;;7.68;77.66
63088;BME280;49173;43.164;27.786;2022-12-29T11:16:31;101528.63;;;7.66;78.07
63088;BME280;49173;43.164;27.786;2022-12-29T11:18:58;101522.34;;;7.68;77.83
63088;BME280;49173;43.164;27.786;2022-12-29T11:21:38;101517.63;;;7.78;77.66
63088;BME280;49173;43.164;27.786;2022-12-29T11:24:21;101513.00;;;7.85;77.07
63088;BME280;49173;43.164;27.786;2022-12-29T11:26:50;101512.91;;;7.89;76.93
63088;BME280;49173;43.164;27.786;2022-12-29T11:29:29;101514.41;;;7.99;76.50
63088;BME280;49173;43.164;27.786;2022-12-29T11:32:23;101512.50;;;8.05;75.52
63088;BME280;49173;43.164;27.786;2022-12-29T11:34:50;101511.44;;;8.12;74.74
63088;BME280;49173;43.164;27.786;2022-12-29T11:37:26;101512.38;;;8.09;74.63
63088;BME280;49173;43.164;27.786;2022-12-29T11:39:59;101508.00;;;8.07;74.53
63088;BME280;49173;43.164;27.786;2022-12-29T11:42:42;101514.31;;;8.03;74.92
63088;BME280;49173;43.164;27.786;2022-12-29T11:45:19;101511.63;;;8.04;75.16
63088;BME280;49173;43.164;27.786;2022-12-29T11:47:52;101506.22;;;8.06;75.81
63088;BME280;49173;43.164;27.786;2022-12-29T11:50:30;101506.06;;;8.12;75.09
63088;BME280;49173;43.164;27.786;2022-12-29T11:52:59;101497.91;;;8.18;74.75
63088;BME280;49173;43.164;27.786;2022-12-29T11:55:27;101500.56;;;8.18;74.57
63088;BME280;49173;43.164;27.786;2022-12-29T11:57:55;101497.75;;;8.22;74.75
63088;BME280;49173;43.164;27.786;2022-12-29T12:00:24;101497.84;;;8.19;74.78
63088;BME280;49173;43.164;27.786;2022-12-29T12:02:58;101488.78;;;8.25;74.87
63088;BME280;49173;43.164;27.786;2022-12-29T12:05:47;101481.38;;;8.35;74.27
63088;BME280;49173;43.164;27.786;2022-12-29T12:08:32;101475.19;;;8.33;73.85
63088;BME280;49173;43.164;27.786;2022-12-29T12:11:18;101472.41;;;8.37;73.73
63088;BME280;49173;43.164;27.786;2022-12-29T12:16:21;101474.66;;;8.52;73.91
63088;BME280;49173;43.164;27.786;2022-12-29T12:18:57;101477.16;;;8.59;73.70
63088;BME280;49173;43.164;27.786;2022-12-29T12:24:07;101467.16;;;8.65;72.33
63088;BME280;49173;43.164;27.786;2022-12-29T12:27:01;101471.56;;;8.68;72.33
63088;BME280;49173;43.164;27.786;2022-12-29T12:32:19;101457.88;;;8.77;72.70
63088;BME280;49173;43.164;27.786;2022-12-29T12:34:48;101445.31;;;8.79;72.13
63088;BME280;49173;43.164;27.786;2022-12-29T12:40:28;101461.25;;;8.84;71.82
63088;BME280;49173;43.164;27.786;2022-12-29T12:45:55;101465.16;;;9.01;71.19
63088;BME280;49173;43.164;27.786;2022-12-29T13:16:06;101462.59;;;8.98;69.78
63088;BME280;49173;43.164;27.786;2022-12-29T13:18:59;101463.28;;;9.05;69.81
63088;BME280;49173;43.164;27.786;2022-12-29T13:21:47;101456.94;;;9.07;69.70
63088;BME280;49173;43.164;27.786;2022-12-29T13:24:33;101460.34;;;9.13;70.23
63088;BME280;49173;43.164;27.786;2022-12-29T13:32:34;101465.72;;;9.13;70.83
63088;BME280;49173;43.164;27.786;2022-12-29T13:37:51;101467.59;;;9.09;71.30
63088;BME280;49173;43.164;27.786;2022-12-29T13:40:23;101464.03;;;9.08;71.23
63088;BME280;49173;43.164;27.786;2022-12-29T13:42:51;101461.41;;;9.07;71.33
63088;BME280;49173;43.164;27.786;2022-12-29T13:45:21;101467.75;;;9.04;71.44
63088;BME280;49173;43.164;27.786;2022-12-29T13:47:56;101466.19;;;8.97;71.71
63088;BME280;49173;43.164;27.786;2022-12-29T13:50:27;101467.13;;;8.95;71.67
63088;BME280;49173;43.164;27.786;2022-12-29T13:55:53;101466.19;;;8.97;72.83
63088;BME280;49173;43.164;27.786;2022-12-29T13:58:31;101468.13;;;8.92;74.10
63088;BME280;49173;43.164;27.786;2022-12-29T14:01:07;101464.63;;;8.90;74.82
63088;BME280;49173;43.164;27.786;2022-12-29T14:03:51;101470.97;;;8.86;76.13
63088;BME280;49173;43.164;27.786;2022-12-29T14:06:26;101469.28;;;8.84;76.39
63088;BME280;49173;43.164;27.786;2022-12-29T14:08:55;101470.34;;;8.78;77.13
63088;BME280;49173;43.164;27.786;2022-12-29T14:11:42;101473.06;;;8.76;77.66
63088;BME280;49173;43.164;27.786;2022-12-29T14:14:14;101470.63;;;8.69;77.76
63088;BME280;49173;43.164;27.786;2022-12-29T14:16:45;101462.81;;;8.61;77.92
63088;BME280;49173;43.164;27.786;2022-12-29T14:19:30;101469.13;;;8.59;78.56
63088;BME280;49173;43.164;27.786;2022-12-29T14:22:01;101463.06;;;8.53;79.01
63088;BME280;49173;43.164;27.786;2022-12-29T14:34:48;101461.75;;;8.36;80.23
63088;BME280;49173;43.164;27.786;2022-12-29T14:37:31;101460.16;;;8.29;80.38
63088;BME280;49173;43.164;27.786;2022-12-29T14:40:18;101458.50;;;8.23;80.50
63088;BME280;49173;43.164;27.786;2022-12-29T14:42:49;101454.34;;;8.13;80.80
63088;BME280;49173;43.164;27.786;2022-12-29T14:47:47;101461.81;;;8.00;81.07
63088;BME280;49173;43.164;27.786;2022-12-29T14:50:19;101466.44;;;7.93;81.48
63088;BME280;49173;43.164;27.786;2022-12-29T14:52:56;101465.78;;;7.85;81.55
63088;BME280;49173;43.164;27.786;2022-12-29T14:55:47;101475.78;;;7.77;81.96
63088;BME280;49173;43.164;27.786;2022-12-29T14:58:39;101468.84;;;7.70;82.18
63088;BME280;49173;43.164;27.786;2022-12-29T15:01:39;101478.84;;;7.62;81.93
63088;BME280;49173;43.164;27.786;2022-12-29T15:04:26;101490.66;;;7.52;81.82
63088;BME280;49173;43.164;27.786;2022-12-29T15:06:53;101487.31;;;7.43;81.62
63088;BME280;49173;43.164;27.786;2022-12-29T15:09:24;101484.78;;;7.37;81.36
63088;BME280;49173;43.164;27.786;2022-12-29T15:11:55;101485.78;;;7.33;81.38
63088;BME280;49173;43.164;27.786;2022-12-29T15:16:56;101487.81;;;7.22;81.49
63088;BME280;49173;43.164;27.786;2022-12-29T15:19:24;101480.81;;;7.16;81.67
63088;BME280;49173;43.164;27.786;2022-12-29T15:21:50;101480.91;;;7.13;81.88